createdAt,value
2019-04-07T00:01:14.578Z,99741.00
2019-04-07T00:03:45.031Z,99745.00
2019-04-07T00:06:15.675Z,99738.00
2019-04-07T00:08:46.590Z,99747.00
2019-04-07T00:11:17.912Z,99744.00
2019-04-07T00:13:48.381Z,99746.00
2019-04-07T00:16:18.771Z,99746.00
2019-04-07T00:18:49.588Z,99742.00
2019-04-07T00:21:20.791Z,99741.00
2019-04-07T00:23:51.310Z,99746.00
2019-04-07T00:26:21.905Z,99739.00
2019-04-07T00:28:52.318Z,99745.00
2019-04-07T00:31:22.857Z,99739.00
2019-04-07T00:33:53.222Z,99742.00
2019-04-07T00:36:23.630Z,99740.00
2019-04-07T00:38:54.027Z,99732.00
2019-04-07T00:41:24.839Z,99733.00
2019-04-07T00:43:55.312Z,99738.00
2019-04-07T00:46:26.846Z,99738.00
2019-04-07T00:48:57.808Z,99738.00
2019-04-07T00:51:28.616Z,99750.00
2019-04-07T00:53:59.743Z,99739.00
2019-04-07T00:56:31.308Z,99738.00
2019-04-07T00:59:02.664Z,99746.00
2019-04-07T01:01:33.112Z,99733.00
2019-04-07T01:04:03.843Z,99737.00
2019-04-07T01:06:34.762Z,99737.00
2019-04-07T01:09:07.916Z,99733.00
2019-04-07T01:11:38.496Z,99735.00
2019-04-07T01:14:09.345Z,99738.00
2019-04-07T01:16:40.728Z,99740.00
2019-04-07T01:19:11.566Z,99735.00
2019-04-07T01:21:41.934Z,99736.00
2019-04-07T01:24:12.357Z,99736.00
2019-04-07T01:26:42.998Z,99733.00
2019-04-07T01:29:14.583Z,99738.00
2019-04-07T01:31:45.163Z,99731.00
2019-04-07T01:34:15.977Z,99724.00
2019-04-07T01:36:46.412Z,99738.00
2019-04-07T01:39:17.165Z,99727.00
2019-04-07T01:42:06.587Z,99736.00
2019-04-07T01:44:56.138Z,99741.00
2019-04-07T01:47:37.001Z,99744.00
2019-04-07T01:50:21.159Z,99736.00
2019-04-07T01:53:00.143Z,99751.00
2019-04-07T01:55:49.902Z,99740.00
2019-04-07T01:58:39.209Z,99739.00
2019-04-07T02:01:18.495Z,99733.00
2019-04-07T02:04:17.183Z,99737.00
2019-04-07T02:07:05.782Z,99744.00
2019-04-07T02:10:07.079Z,99740.00
2019-04-07T02:12:58.973Z,99742.00
2019-04-07T02:15:35.909Z,99738.00
2019-04-07T02:18:28.007Z,99740.00
2019-04-07T02:21:07.275Z,99736.00
2019-04-07T02:23:45.969Z,99738.00
2019-04-07T02:26:22.622Z,99736.00
2019-04-07T02:29:10.562Z,99739.00
2019-04-07T02:31:52.191Z,99734.00
2019-04-07T02:34:31.639Z,99740.00
2019-04-07T02:37:21.018Z,99736.00
2019-04-07T02:40:13.781Z,99731.00
2019-04-07T02:43:01.867Z,99740.00
2019-04-07T02:45:57.882Z,99739.00
2019-04-07T02:48:54.394Z,99738.00
2019-04-07T02:51:43.448Z,99747.00
2019-04-07T02:54:22.786Z,99735.00
2019-04-07T02:57:02.407Z,99737.00
2019-04-07T02:59:57.937Z,99741.00
2019-04-07T03:02:49.962Z,99747.00
2019-04-07T03:05:30.206Z,99744.00
2019-04-07T03:08:06.543Z,99732.00
2019-04-07T03:10:56.911Z,99738.00
2019-04-07T03:13:46.474Z,99737.00
2019-04-07T03:16:42.001Z,99732.00
2019-04-07T03:19:34.261Z,99729.00
2019-04-07T03:22:11.021Z,99743.00
2019-04-07T03:25:05.553Z,99736.00
2019-04-07T03:27:55.453Z,99726.00
2019-04-07T03:30:40.986Z,99740.00
2019-04-07T03:33:21.616Z,99736.00
2019-04-07T03:36:00.572Z,99741.00
2019-04-07T03:38:46.774Z,99727.00
2019-04-07T03:41:24.518Z,99745.00
2019-04-07T03:44:22.900Z,99741.00
2019-04-07T03:47:10.673Z,99739.00
2019-04-07T03:49:59.694Z,99735.00
2019-04-07T03:52:48.851Z,99737.00
2019-04-07T03:55:44.086Z,99740.00
2019-04-07T04:01:45.980Z,99740.00
2019-04-07T04:04:36.213Z,99739.00
2019-04-07T04:07:27.590Z,99737.00
2019-04-07T04:10:09.809Z,99740.00
2019-04-07T04:13:05.339Z,99742.00
2019-04-07T04:16:01.054Z,99735.00
2019-04-07T04:18:31.395Z,99739.00
2019-04-07T04:21:02.112Z,99751.00
2019-04-07T04:23:33.475Z,99753.00
2019-04-07T04:26:04.419Z,99756.00
2019-04-07T04:28:34.909Z,99755.00
2019-04-07T04:31:05.382Z,99754.00
2019-04-07T04:33:36.074Z,99762.00
2019-04-07T04:36:08.027Z,99761.00
2019-04-07T04:38:38.947Z,99762.00
2019-04-07T04:41:10.077Z,99763.00
2019-04-07T04:43:42.130Z,99766.00
2019-04-07T04:46:13.491Z,99766.00
2019-04-07T04:48:44.042Z,99776.00
2019-04-07T04:51:14.492Z,99778.00
2019-04-07T04:53:45.687Z,99774.00
2019-04-07T04:56:16.811Z,99783.00
2019-04-07T04:58:47.826Z,99779.00
2019-04-07T05:01:18.716Z,99783.00
2019-04-07T05:03:49.420Z,99788.00
2019-04-07T05:06:20.024Z,99793.00
2019-04-07T05:08:51.208Z,99800.00
2019-04-07T05:11:21.620Z,99788.00
2019-04-07T05:13:52.869Z,99791.00
2019-04-07T05:16:24.060Z,99795.00
2019-04-07T05:18:54.881Z,99799.00
2019-04-07T05:21:26.160Z,99810.00
2019-04-07T05:23:56.556Z,99799.00
2019-04-07T05:26:27.240Z,99797.00
2019-04-07T05:28:58.248Z,99807.00
2019-04-07T05:31:29.223Z,99803.00
2019-04-07T05:34:00.313Z,99804.00
2019-04-07T05:36:31.365Z,99804.00
2019-04-07T05:39:02.099Z,99824.00
2019-04-07T05:41:32.813Z,99813.00
2019-04-07T05:44:03.509Z,99824.00
2019-04-07T05:46:38.651Z,99828.00
2019-04-07T05:49:06.648Z,99839.00
2019-04-07T05:51:37.067Z,99826.00
2019-04-07T05:54:08.062Z,99829.00
2019-04-07T05:56:39.283Z,99833.00
2019-04-07T05:59:12.149Z,99841.00
2019-04-07T06:01:41.799Z,99834.00
2019-04-07T06:04:16.845Z,99834.00
2019-04-07T06:06:45.314Z,99842.00
2019-04-07T06:09:18.928Z,99846.00
2019-04-07T06:11:48.776Z,99844.00
2019-04-07T06:14:19.342Z,99850.00
2019-04-07T06:16:53.577Z,99853.00
2019-04-07T06:19:21.795Z,99836.00
2019-04-07T06:21:53.148Z,99850.00
2019-04-07T06:24:23.486Z,99850.00
2019-04-07T06:26:54.373Z,99842.00
2019-04-07T06:29:26.434Z,99853.00
2019-04-07T06:31:57.755Z,99851.00
2019-04-07T06:34:29.016Z,99846.00
2019-04-07T06:36:59.574Z,99852.00
2019-04-07T06:39:32.222Z,99854.00
2019-04-07T06:42:03.574Z,99856.00
2019-04-07T06:44:34.460Z,99851.00
2019-04-07T06:47:31.338Z,99852.00
2019-04-07T06:50:30.231Z,99849.00
2019-04-07T06:53:10.596Z,99852.00
2019-04-07T06:56:14.319Z,99856.00
2019-04-07T06:59:02.575Z,99856.00
2019-04-07T07:01:58.138Z,99863.00
2019-04-07T07:04:52.411Z,99862.00
2019-04-07T07:07:47.933Z,99860.00
2019-04-07T07:10:35.635Z,99862.00
2019-04-07T07:13:30.704Z,99863.00
2019-04-07T07:16:17.327Z,99866.00
2019-04-07T07:19:27.432Z,99856.00
2019-04-07T07:22:16.550Z,99863.00
2019-04-07T07:24:47.692Z,99855.00
2019-04-07T07:27:18.749Z,99863.00
2019-04-07T07:29:52.552Z,99866.00
2019-04-07T07:32:21.585Z,99865.00
2019-04-07T07:34:52.783Z,99862.00
2019-04-07T07:37:25.393Z,99855.00
2019-04-07T07:39:55.461Z,99862.00
2019-04-07T07:42:26.753Z,99862.00
2019-04-07T07:44:58.420Z,99856.00
2019-04-07T07:47:29.632Z,99857.00
2019-04-07T07:50:00.102Z,99857.00
2019-04-07T07:52:31.846Z,99857.00
2019-04-07T07:55:03.041Z,99862.00
2019-04-07T07:57:35.470Z,99860.00
2019-04-07T08:00:07.217Z,99860.00
2019-04-07T08:02:38.964Z,99858.00
2019-04-07T08:05:10.387Z,99856.00
2019-04-07T08:07:45.741Z,99858.00
2019-04-07T08:10:14.724Z,99859.00
2019-04-07T08:12:45.731Z,99864.00
2019-04-07T08:15:17.177Z,99868.00
2019-04-07T08:17:47.597Z,99869.00
2019-04-07T08:20:19.605Z,99874.00
2019-04-07T08:22:50.435Z,99875.00
2019-04-07T08:25:24.428Z,99873.00
2019-04-07T08:27:53.141Z,99874.00
2019-04-07T08:30:23.812Z,99875.00
2019-04-07T08:32:57.114Z,99878.00
2019-04-07T08:35:26.419Z,99882.00
2019-04-07T08:37:56.848Z,99882.00
2019-04-07T08:40:28.554Z,99881.00
2019-04-07T08:43:00.478Z,99880.00
2019-04-07T08:45:32.769Z,99881.00
2019-04-07T08:48:04.078Z,99881.00
2019-04-07T08:50:35.104Z,99874.00
2019-04-07T08:53:05.748Z,99873.00
2019-04-07T08:55:36.467Z,99876.00
2019-04-07T08:58:06.887Z,99873.00
2019-04-07T09:00:41.591Z,99874.00
2019-04-07T09:03:14.757Z,99875.00
2019-04-07T09:05:44.480Z,99876.00
2019-04-07T09:08:15.018Z,99873.00
2019-04-07T09:10:51.025Z,99870.00
2019-04-07T09:13:22.486Z,99876.00
2019-04-07T09:16:21.161Z,99879.00
2019-04-07T09:19:10.292Z,99882.00
2019-04-07T09:22:12.789Z,99880.00
2019-04-07T09:25:00.762Z,99886.00
2019-04-07T09:27:50.329Z,99876.00
2019-04-07T09:30:47.161Z,99886.00
2019-04-07T09:33:39.286Z,99880.00
2019-04-07T09:36:32.354Z,99881.00
2019-04-07T09:39:11.144Z,99887.00
2019-04-07T09:41:47.530Z,99878.00
2019-04-07T09:44:43.839Z,99879.00
2019-04-07T09:47:39.124Z,99879.00
2019-04-07T09:50:34.994Z,99882.00
2019-04-07T09:53:33.798Z,99880.00
2019-04-07T09:56:19.637Z,99881.00
2019-04-07T09:59:27.356Z,99882.00
2019-04-07T10:02:14.695Z,99881.00
2019-04-07T10:05:07.194Z,99877.00
2019-04-07T10:07:55.061Z,99885.00
2019-04-07T10:11:00.605Z,99882.00
2019-04-07T10:13:52.075Z,99883.00
2019-04-07T10:16:39.385Z,99881.00
2019-04-07T10:19:37.409Z,99881.00
2019-04-07T10:22:26.635Z,99874.00
2019-04-07T10:25:21.106Z,99875.00
2019-04-07T10:28:11.605Z,99876.00
2019-04-07T10:30:59.791Z,99877.00
2019-04-07T10:33:58.389Z,99871.00
2019-04-07T10:37:04.820Z,99876.00
2019-04-07T10:39:41.587Z,99873.00
2019-04-07T10:42:29.835Z,99878.00
2019-04-07T10:45:07.318Z,99871.00
2019-04-07T10:47:56.844Z,99868.00
2019-04-07T10:50:49.335Z,99877.00
2019-04-07T10:53:32.252Z,99863.00
2019-04-07T10:56:26.587Z,99863.00
2019-04-07T10:59:22.105Z,99867.00
2019-04-07T11:02:10.273Z,99872.00
2019-04-07T11:04:49.632Z,99866.00
2019-04-07T11:07:39.339Z,99859.00
2019-04-07T11:10:32.900Z,99866.00
2019-04-07T11:13:18.497Z,99866.00
2019-04-07T11:16:03.776Z,99871.00
2019-04-07T11:19:05.347Z,99861.00
2019-04-07T11:21:54.657Z,99865.00
2019-04-07T11:24:59.787Z,99861.00
2019-04-07T11:27:49.145Z,99865.00
2019-04-07T11:30:32.210Z,99858.00
2019-04-07T11:33:31.368Z,99859.00
2019-04-07T11:36:24.473Z,99865.00
2019-04-07T11:39:19.982Z,99861.00
2019-04-07T11:41:59.584Z,99872.00
2019-04-07T11:44:49.665Z,99861.00
2019-04-07T11:47:28.647Z,99856.00
2019-04-07T11:50:10.481Z,99867.00
2019-04-07T11:52:53.085Z,99863.00
2019-04-07T11:55:44.213Z,99869.00
2019-04-07T11:58:30.463Z,99872.00
2019-04-07T12:01:14.488Z,99871.00
2019-04-07T12:03:54.997Z,99874.00
2019-04-07T12:06:54.638Z,99863.00
2019-04-07T12:09:37.026Z,99871.00
2019-04-07T12:12:35.674Z,99874.00
2019-04-07T12:15:28.653Z,99873.00
2019-04-07T12:18:18.779Z,99875.00
2019-04-07T12:21:48.055Z,99883.00
2019-04-07T12:24:50.194Z,99883.00
2019-04-07T12:27:43.085Z,99872.00
2019-04-07T12:30:31.648Z,99874.00
2019-04-07T12:33:12.085Z,99867.00
2019-04-07T12:35:53.471Z,99870.00
2019-04-07T12:38:59.994Z,99869.00
2019-04-07T12:41:42.571Z,99872.00
2019-04-07T12:44:19.167Z,99862.00
2019-04-07T12:47:11.401Z,99859.00
2019-04-07T12:49:56.194Z,99868.00
2019-04-07T12:52:35.498Z,99859.00
2019-04-07T12:55:29.390Z,99864.00
2019-04-07T12:58:21.413Z,99856.00
2019-04-07T13:01:14.033Z,99855.00
2019-04-07T13:03:57.482Z,99854.00
2019-04-07T13:06:37.608Z,99862.00
2019-04-07T13:09:34.996Z,99854.00
2019-04-07T13:12:20.437Z,99866.00
2019-04-07T13:15:15.876Z,99858.00
2019-04-07T13:18:06.459Z,99860.00
2019-04-07T13:20:55.097Z,99856.00
2019-04-07T13:23:45.009Z,99849.00
2019-04-07T13:26:46.223Z,99848.00
2019-04-07T13:29:29.131Z,99839.00
2019-04-07T13:32:19.209Z,99852.00
2019-04-07T13:35:08.614Z,99847.00
2019-04-07T13:38:01.283Z,99852.00
2019-04-07T13:40:54.152Z,99848.00
2019-04-07T13:43:42.238Z,99837.00
2019-04-07T13:46:28.508Z,99847.00
2019-04-07T13:49:04.669Z,99848.00
2019-04-07T13:51:46.800Z,99839.00
2019-04-07T13:54:40.410Z,99836.00
2019-04-07T13:57:29.485Z,99849.00
2019-04-07T14:00:13.455Z,99841.00
2019-04-07T14:02:57.082Z,99846.00
2019-04-07T14:05:46.326Z,99854.00
2019-04-07T14:08:57.199Z,99853.00
2019-04-07T14:11:35.036Z,99843.00
2019-04-07T14:14:33.114Z,99852.00
2019-04-07T14:17:33.105Z,99842.00
2019-04-07T14:20:42.411Z,99843.00
2019-04-07T14:23:44.672Z,99849.00
2019-04-07T14:26:43.463Z,99854.00
2019-04-07T14:29:39.465Z,99852.00
2019-04-07T14:32:34.627Z,99855.00
2019-04-07T14:35:27.359Z,99846.00
2019-04-07T14:38:16.459Z,99842.00
2019-04-07T14:41:09.669Z,99854.00
2019-04-07T14:44:11.091Z,99849.00
2019-04-07T14:46:51.234Z,99848.00
2019-04-07T14:49:31.722Z,99836.00
2019-04-07T14:52:21.134Z,99851.00
2019-04-07T14:55:00.286Z,99844.00
2019-04-07T14:57:49.134Z,99847.00
2019-04-07T15:00:51.243Z,99844.00
2019-04-07T15:03:21.595Z,99843.00
2019-04-07T15:05:55.140Z,99847.00
2019-04-07T15:08:48.687Z,99852.00
2019-04-07T15:12:14.264Z,99845.00
2019-04-07T15:14:34.830Z,99834.00
2019-04-07T15:17:05.824Z,99855.00
2019-04-07T15:19:36.267Z,99856.00
2019-04-07T15:22:07.034Z,99852.00
2019-04-07T15:24:39.489Z,99848.00
2019-04-07T15:27:11.258Z,99845.00
2019-04-07T15:29:44.666Z,99846.00
2019-04-07T15:32:13.760Z,99851.00
2019-04-07T15:34:44.500Z,99841.00
2019-04-07T15:37:15.416Z,99846.00
2019-04-07T15:39:45.921Z,99851.00
2019-04-07T15:42:31.464Z,99842.00
2019-04-07T15:44:50.859Z,99851.00
2019-04-07T15:47:22.260Z,99860.00
2019-04-07T15:49:52.944Z,99859.00
2019-04-07T15:52:23.290Z,99854.00
2019-04-07T15:54:55.116Z,99856.00
2019-04-07T15:57:26.115Z,99864.00
2019-04-07T16:00:00.077Z,99858.00
2019-04-07T16:02:29.007Z,99855.00
2019-04-07T16:05:03.310Z,99859.00
2019-04-07T16:07:32.849Z,99867.00
2019-04-07T16:10:03.887Z,99866.00
2019-04-07T16:12:43.534Z,99859.00
2019-04-07T16:15:07.879Z,99861.00
2019-04-07T16:17:38.426Z,99865.00
2019-04-07T16:20:21.439Z,99870.00
2019-04-07T16:22:45.783Z,99871.00
2019-04-07T16:25:15.714Z,99860.00
2019-04-07T16:27:47.486Z,99872.00
2019-04-07T16:30:19.477Z,99870.00
2019-04-07T16:32:50.733Z,99875.00
2019-04-07T16:35:21.129Z,99872.00
2019-04-07T16:37:52.087Z,99877.00
2019-04-07T16:40:23.667Z,99877.00
2019-04-07T16:43:07.715Z,99889.00
2019-04-07T16:45:28.277Z,99884.00
2019-04-07T16:48:00.053Z,99888.00
2019-04-07T16:50:31.554Z,99889.00
2019-04-07T16:53:03.570Z,99880.00
2019-04-07T16:55:40.144Z,99885.00
2019-04-07T16:58:14.289Z,99891.00
2019-04-07T17:00:45.385Z,99889.00
2019-04-07T17:03:16.148Z,99895.00
2019-04-07T17:05:46.743Z,99897.00
2019-04-07T17:08:19.635Z,99894.00
2019-04-07T17:10:50.631Z,99890.00
2019-04-07T17:13:31.327Z,99897.00
2019-04-07T17:15:55.284Z,99899.00
2019-04-07T17:18:41.733Z,99897.00
2019-04-07T17:21:15.783Z,99900.00
2019-04-07T17:23:47.617Z,99901.00
2019-04-07T17:26:18.300Z,99905.00
2019-04-07T17:29:08.940Z,99903.00
2019-04-07T17:31:40.082Z,99908.00
2019-04-07T17:34:14.143Z,99907.00
2019-04-07T17:36:48.403Z,99911.00
2019-04-07T17:39:40.484Z,99918.00
2019-04-07T17:42:15.660Z,99921.00
2019-04-07T17:45:20.418Z,99918.00
2019-04-07T17:48:07.552Z,99926.00
2019-04-07T17:50:55.291Z,99927.00
2019-04-07T17:53:48.439Z,99931.00
2019-04-07T17:56:40.705Z,99931.00
2019-04-07T17:59:33.441Z,99936.00
2019-04-07T18:02:12.113Z,99926.00
2019-04-07T18:05:10.691Z,99933.00
2019-04-07T18:07:49.859Z,99940.00
2019-04-07T18:10:32.458Z,99945.00
2019-04-07T18:13:39.514Z,99940.00
2019-04-07T18:16:15.058Z,99945.00
2019-04-07T18:19:16.873Z,99957.00
2019-04-07T18:22:06.212Z,99960.00
2019-04-07T18:24:49.384Z,99959.00
2019-04-07T18:27:48.188Z,99962.00
2019-04-07T18:30:35.694Z,99962.00
2019-04-07T18:33:28.848Z,99957.00
2019-04-07T18:36:19.183Z,99970.00
2019-04-07T18:39:07.614Z,99975.00
2019-04-07T18:41:57.227Z,99968.00
2019-04-07T18:44:40.392Z,99982.00
2019-04-07T18:47:31.450Z,99977.00
2019-04-07T18:50:37.818Z,99988.00
2019-04-07T18:53:30.747Z,99991.00
2019-04-07T18:56:14.085Z,99992.00
2019-04-07T18:59:24.763Z,100002.00
2019-04-07T19:02:13.823Z,99999.00
2019-04-07T19:05:14.012Z,100004.00
2019-04-07T19:08:03.971Z,100010.00
2019-04-07T19:10:48.924Z,100018.00
2019-04-07T19:14:04.590Z,100007.00
2019-04-07T19:16:50.761Z,100021.00
2019-04-07T19:19:49.239Z,100028.00
2019-04-07T19:22:30.274Z,100014.00
2019-04-07T19:25:29.391Z,100022.00
2019-04-07T19:28:21.947Z,100022.00
2019-04-07T19:31:09.229Z,100019.00
2019-04-07T19:34:03.761Z,100032.00
2019-04-07T19:36:47.197Z,100037.00
2019-04-07T19:39:36.546Z,100030.00
2019-04-07T19:42:34.915Z,100034.00
2019-04-07T19:45:25.594Z,100035.00
2019-04-07T19:48:15.284Z,100031.00
2019-04-07T19:51:03.693Z,100032.00
2019-04-07T19:54:05.354Z,100036.00
2019-04-07T19:56:46.316Z,100041.00
2019-04-07T19:59:31.755Z,100034.00
2019-04-07T20:02:20.244Z,100035.00
2019-04-07T20:04:57.087Z,100041.00
2019-04-07T20:07:46.423Z,100044.00
2019-04-07T20:10:49.885Z,100044.00
2019-04-07T20:13:40.461Z,100049.00
2019-04-07T20:16:26.531Z,100050.00
2019-04-07T20:19:09.734Z,100049.00
2019-04-07T20:22:04.831Z,100056.00
2019-04-07T20:24:50.288Z,100050.00
2019-04-07T20:27:38.084Z,100052.00
2019-04-07T20:30:30.850Z,100060.00
2019-04-07T20:33:18.423Z,100061.00
2019-04-07T20:36:27.694Z,100051.00
2019-04-07T20:39:36.576Z,100053.00
2019-04-07T20:42:15.948Z,100048.00
2019-04-07T20:45:04.313Z,100051.00
2019-04-07T20:47:56.629Z,100054.00
2019-04-07T20:50:45.450Z,100062.00
2019-04-07T20:53:24.129Z,100057.00
2019-04-07T20:56:13.161Z,100062.00
2019-04-07T20:59:07.932Z,100057.00
2019-04-07T21:02:04.157Z,100059.00
2019-04-07T21:04:43.633Z,100057.00
2019-04-07T21:07:29.775Z,100063.00
2019-04-07T21:10:21.843Z,100070.00
2019-04-07T21:13:02.319Z,100057.00
2019-04-07T21:15:50.458Z,100066.00
2019-04-07T21:18:40.586Z,100076.00
2019-04-07T21:21:31.953Z,100067.00
2019-04-07T21:24:33.547Z,100063.00
2019-04-07T21:27:10.281Z,100070.00
2019-04-07T21:30:00.304Z,100067.00
2019-04-07T21:32:38.808Z,100077.00
2019-04-07T21:35:36.656Z,100080.00
2019-04-07T21:38:25.805Z,100070.00
2019-04-07T21:41:22.319Z,100079.00
2019-04-07T21:44:09.160Z,100074.00
2019-04-07T21:47:00.049Z,100075.00
2019-04-07T21:49:52.206Z,100084.00
2019-04-07T21:52:41.937Z,100085.00
2019-04-07T21:55:25.377Z,100084.00
2019-04-07T21:58:09.033Z,100083.00
2019-04-07T22:01:17.647Z,100080.00
2019-04-07T22:04:39.556Z,100082.00
2019-04-07T22:07:31.580Z,100080.00
2019-04-07T22:10:03.174Z,100082.00
2019-04-07T22:12:38.027Z,100085.00
2019-04-07T22:15:13.469Z,100090.00
2019-04-07T22:17:42.011Z,100080.00
2019-04-07T22:20:17.707Z,100080.00
2019-04-07T22:22:46.948Z,100075.00
2019-04-07T22:25:36.139Z,100081.00
2019-04-07T22:28:07.592Z,100075.00
2019-04-07T22:30:41.248Z,100079.00
2019-04-07T22:33:11.203Z,100067.00
2019-04-07T22:35:44.012Z,100083.00
2019-04-07T22:38:14.989Z,100076.00
2019-04-07T22:40:45.817Z,100082.00
2019-04-07T22:43:18.518Z,100086.00
2019-04-07T22:45:59.034Z,100084.00
2019-04-07T22:48:25.266Z,100088.00
2019-04-07T22:50:53.882Z,100092.00
2019-04-07T22:53:27.064Z,100086.00
2019-04-07T22:55:56.906Z,100096.00
2019-04-07T22:58:27.818Z,100090.00
2019-04-07T23:00:58.584Z,100092.00
2019-04-07T23:03:29.246Z,100086.00
2019-04-07T23:05:59.750Z,100089.00
2019-04-07T23:08:30.124Z,100086.00
2019-04-07T23:11:00.942Z,100089.00
2019-04-07T23:13:32.139Z,100092.00
2019-04-07T23:16:10.801Z,100088.00
2019-04-07T23:18:35.878Z,100083.00
2019-04-07T23:21:07.899Z,100090.00
2019-04-07T23:23:38.674Z,100089.00
2019-04-07T23:26:28.149Z,100090.00
2019-04-07T23:28:58.805Z,100092.00
2019-04-07T23:31:32.009Z,100092.00
2019-04-07T23:34:02.859Z,100098.00
2019-04-07T23:36:34.048Z,100099.00
2019-04-07T23:39:06.540Z,100101.00
2019-04-07T23:41:37.302Z,100099.00
2019-04-07T23:44:07.696Z,100095.00
2019-04-07T23:46:39.274Z,100097.00
2019-04-07T23:49:10.097Z,100100.00
2019-04-07T23:51:41.415Z,100105.00
2019-04-07T23:54:14.386Z,100100.00
2019-04-07T23:56:45.428Z,100101.00
2019-04-07T23:59:16.927Z,100095.00
